createdAt,value
2022-12-19T00:00:37.860Z,9.308979
2022-12-19T00:01:38.112Z,9.309018
2022-12-19T00:02:37.965Z,9.308978
2022-12-19T00:03:37.819Z,9.308980
2022-12-19T00:04:37.816Z,9.308996
2022-12-19T00:05:37.760Z,9.309068
2022-12-19T00:06:37.887Z,9.309105
2022-12-19T00:07:38.843Z,9.309073
2022-12-19T00:08:37.743Z,9.309039
2022-12-19T00:09:37.743Z,9.309096
2022-12-19T00:10:37.811Z,9.309155
2022-12-19T00:11:37.770Z,9.309078
2022-12-19T00:12:37.762Z,9.309190
2022-12-19T00:13:41.077Z,9.309140
2022-12-19T00:14:37.760Z,9.309065
2022-12-19T00:15:37.759Z,9.309131
2022-12-19T00:16:37.842Z,9.309039
2022-12-19T00:17:37.740Z,9.308970
2022-12-19T00:18:37.809Z,9.308942
2022-12-19T00:19:37.755Z,9.309022
2022-12-19T00:20:37.760Z,9.308928
2022-12-19T00:21:37.742Z,9.308963
2022-12-19T00:22:37.789Z,9.308886
2022-12-19T00:23:37.741Z,9.308931
2022-12-19T00:24:37.774Z,9.308762
2022-12-19T00:25:37.735Z,9.308810
2022-12-19T00:26:37.733Z,9.308836
2022-12-19T00:27:37.663Z,9.309003
2022-12-19T00:28:37.733Z,9.308971
2022-12-19T00:29:37.735Z,9.309027
2022-12-19T00:30:37.682Z,9.309080
2022-12-19T00:31:37.763Z,9.309078
2022-12-19T00:32:37.707Z,9.309029
2022-12-19T00:33:37.883Z,9.309032
2022-12-19T00:34:38.767Z,9.308864
2022-12-19T00:35:37.678Z,9.308844
2022-12-19T00:36:37.682Z,9.308865
2022-12-19T00:37:41.415Z,9.308992
2022-12-19T00:38:38.553Z,9.309126
2022-12-19T00:39:37.679Z,9.309128
2022-12-19T00:40:37.637Z,9.309018
2022-12-19T00:41:37.617Z,9.309093
2022-12-19T00:42:37.647Z,9.309096
2022-12-19T00:43:37.609Z,9.309097
2022-12-19T00:44:37.632Z,9.308978
2022-12-19T00:45:37.698Z,9.309114
2022-12-19T00:46:37.566Z,9.309062
2022-12-19T00:47:37.633Z,9.308916
2022-12-19T00:48:37.537Z,9.308917
2022-12-19T00:49:37.558Z,9.308914
2022-12-19T00:50:37.556Z,9.308945
2022-12-19T00:51:37.631Z,9.308862
2022-12-19T00:52:37.517Z,9.308879
2022-12-19T00:53:37.567Z,9.308673
2022-12-19T00:54:37.567Z,9.308771
2022-12-19T00:55:37.549Z,9.308889
2022-12-19T00:56:38.499Z,9.308904
2022-12-19T00:57:37.563Z,9.309012
2022-12-19T00:58:39.081Z,9.309068
2022-12-19T00:59:37.487Z,9.308885
2022-12-19T01:00:38.260Z,9.308935
2022-12-19T01:01:39.767Z,9.309024
2022-12-19T01:02:37.564Z,9.309062
2022-12-19T01:03:37.443Z,9.309118
2022-12-19T01:04:41.491Z,9.309060
2022-12-19T01:05:38.368Z,9.309062
2022-12-19T01:06:37.413Z,9.309106
2022-12-19T01:07:37.390Z,9.309131
2022-12-19T01:08:37.368Z,9.308996
2022-12-19T01:09:37.412Z,9.309009
2022-12-19T01:10:37.361Z,9.309000
2022-12-19T01:11:37.419Z,9.308956
2022-12-19T01:12:37.448Z,9.308954
2022-12-19T01:13:37.368Z,9.308825
2022-12-19T01:14:37.390Z,9.308947
2022-12-19T01:15:37.413Z,9.308951
2022-12-19T01:16:37.471Z,9.309025
2022-12-19T01:17:44.190Z,9.308933
2022-12-19T01:18:38.334Z,9.308928
2022-12-19T01:19:43.306Z,9.308905
2022-12-19T01:20:39.360Z,9.308951
2022-12-19T01:21:37.342Z,9.309086
2022-12-19T01:22:37.367Z,9.309095
2022-12-19T01:23:37.444Z,9.309072
2022-12-19T01:24:37.331Z,9.308940
2022-12-19T01:25:40.456Z,9.309008
2022-12-19T01:26:38.378Z,9.308977
2022-12-19T01:27:37.366Z,9.308955
2022-12-19T01:28:37.332Z,9.308990
2022-12-19T01:29:51.157Z,9.309022
2022-12-19T01:30:38.302Z,9.308924
2022-12-19T01:31:37.361Z,9.308889
2022-12-19T01:32:37.293Z,9.308905
2022-12-19T01:33:37.247Z,9.309040
2022-12-19T01:34:37.280Z,9.309044
2022-12-19T01:35:37.287Z,9.309057
2022-12-19T01:36:40.143Z,9.309106
2022-12-19T01:37:37.225Z,9.309066
2022-12-19T01:38:37.262Z,9.309043
2022-12-19T01:39:37.237Z,9.308982
2022-12-19T01:40:37.269Z,9.309023
2022-12-19T01:41:37.392Z,9.309171
2022-12-19T01:42:37.281Z,9.309081
2022-12-19T01:43:37.214Z,9.309142
2022-12-19T01:44:37.170Z,9.309122
2022-12-19T01:45:43.525Z,9.309092
2022-12-19T01:46:39.377Z,9.309035
2022-12-19T01:47:37.203Z,9.309032
2022-12-19T01:48:37.238Z,9.309161
2022-12-19T01:49:37.183Z,9.309151
2022-12-19T01:50:37.215Z,9.309104
2022-12-19T01:51:37.240Z,9.309072
2022-12-19T01:52:37.213Z,9.309119
2022-12-19T01:53:37.956Z,9.309168
2022-12-19T01:54:38.158Z,9.309015
2022-12-19T01:55:37.085Z,9.309093
2022-12-19T01:56:38.819Z,9.309101
2022-12-19T01:57:37.017Z,9.309102
2022-12-19T01:58:37.016Z,9.309065
2022-12-19T01:59:36.997Z,9.308974
2022-12-19T02:00:37.011Z,9.308989
2022-12-19T02:01:49.549Z,9.309089
2022-12-19T02:02:38.195Z,9.309065
2022-12-19T02:03:37.008Z,9.309102
2022-12-19T02:04:36.957Z,9.309104
2022-12-19T02:05:37.017Z,9.308981
2022-12-19T02:06:37.743Z,9.308928
2022-12-19T02:07:36.986Z,9.308895
2022-12-19T02:08:36.973Z,9.308913
2022-12-19T02:09:36.958Z,9.309023
2022-12-19T02:10:36.997Z,9.309067
2022-12-19T02:11:37.045Z,9.308844
2022-12-19T02:12:37.051Z,9.308795
2022-12-19T02:13:37.052Z,9.308978
2022-12-19T02:14:36.901Z,9.309075
2022-12-19T02:15:37.106Z,9.309187
2022-12-19T02:16:37.120Z,9.309007
2022-12-19T02:17:37.003Z,9.308730
2022-12-19T02:18:37.046Z,9.309044
2022-12-19T02:19:36.957Z,9.309055
2022-12-19T02:20:37.012Z,9.309154
2022-12-19T02:21:36.985Z,9.309154
2022-12-19T02:22:36.961Z,9.309209
2022-12-19T02:23:36.982Z,9.309178
2022-12-19T02:24:36.937Z,9.309168
2022-12-19T02:25:36.935Z,9.309156
2022-12-19T02:26:36.932Z,9.309093
2022-12-19T02:27:40.080Z,9.309189
2022-12-19T02:28:37.986Z,9.309177
2022-12-19T02:29:36.873Z,9.309175
2022-12-19T02:30:36.897Z,9.309305
2022-12-19T02:31:36.940Z,9.309170
2022-12-19T02:32:36.862Z,9.309175
2022-12-19T02:33:36.918Z,9.309122
2022-12-19T02:34:40.040Z,9.309121
2022-12-19T02:35:38.844Z,9.309177
2022-12-19T02:36:38.812Z,9.309190
2022-12-19T02:37:36.906Z,9.309221
2022-12-19T02:38:36.858Z,9.309003
2022-12-19T02:39:36.953Z,9.308809
2022-12-19T02:40:36.831Z,9.308855
2022-12-19T02:41:36.826Z,9.308659
2022-12-19T02:42:36.816Z,9.308846
2022-12-19T02:43:36.791Z,9.308949
2022-12-19T02:44:36.827Z,9.309029
2022-12-19T02:45:36.925Z,9.308999
2022-12-19T02:46:36.838Z,9.309162
2022-12-19T02:47:36.795Z,9.309043
2022-12-19T02:48:36.792Z,9.309140
2022-12-19T02:49:36.745Z,9.309304
2022-12-19T02:50:36.886Z,9.309198
2022-12-19T02:51:36.778Z,9.309234
2022-12-19T02:52:36.785Z,9.308989
2022-12-19T02:53:36.732Z,9.308950
2022-12-19T02:54:36.710Z,9.309018
2022-12-19T02:55:36.727Z,9.309127
2022-12-19T02:56:36.816Z,9.309125
2022-12-19T02:57:36.716Z,9.309111
2022-12-19T02:58:36.742Z,9.309114
2022-12-19T02:59:36.718Z,9.309134
2022-12-19T03:00:36.762Z,9.309088
2022-12-19T03:01:36.965Z,9.309126
2022-12-19T03:02:36.840Z,9.309104
2022-12-19T03:03:36.779Z,9.309137
2022-12-19T03:04:36.663Z,9.309213
2022-12-19T03:05:36.666Z,9.309165
2022-12-19T03:06:36.674Z,9.309186
2022-12-19T03:07:36.675Z,9.309218
2022-12-19T03:08:36.651Z,9.309214
2022-12-19T03:09:36.642Z,9.309182
2022-12-19T03:10:36.662Z,9.309133
2022-12-19T03:11:36.522Z,9.309087
2022-12-19T03:12:36.568Z,9.309123
2022-12-19T03:13:36.533Z,9.309122
2022-12-19T03:14:36.584Z,9.309092
2022-12-19T03:15:36.533Z,9.309141
2022-12-19T03:16:36.585Z,9.309102
2022-12-19T03:17:36.512Z,9.309214
2022-12-19T03:18:36.605Z,9.309117
2022-12-19T03:19:36.600Z,9.309149
2022-12-19T03:20:36.497Z,9.309160
2022-12-19T03:21:36.599Z,9.309157
2022-12-19T03:22:36.614Z,9.309141
2022-12-19T03:23:36.638Z,9.309129
2022-12-19T03:24:36.526Z,9.309161
2022-12-19T03:25:36.577Z,9.309155
2022-12-19T03:26:36.545Z,9.309176
2022-12-19T03:27:36.631Z,9.309131
2022-12-19T03:28:36.559Z,9.309101
2022-12-19T03:29:36.545Z,9.309077
2022-12-19T03:30:36.517Z,9.309112
2022-12-19T03:31:36.550Z,9.309083
2022-12-19T03:32:36.481Z,9.309146
2022-12-19T03:33:36.529Z,9.309207
2022-12-19T03:34:36.502Z,9.309160
2022-12-19T03:35:36.449Z,9.309171
2022-12-19T03:36:36.471Z,9.309252
2022-12-19T03:37:36.496Z,9.309182
2022-12-19T03:38:36.582Z,9.309194
2022-12-19T03:39:36.511Z,9.309182
2022-12-19T03:40:36.488Z,9.309164
2022-12-19T03:41:36.455Z,9.309128
2022-12-19T03:42:36.434Z,9.309149
2022-12-19T03:43:36.406Z,9.309202
2022-12-19T03:44:36.418Z,9.309165
2022-12-19T03:45:36.438Z,9.309117
2022-12-19T03:46:36.437Z,9.309095
2022-12-19T03:47:36.477Z,9.309135
2022-12-19T03:48:36.416Z,9.309102
2022-12-19T03:49:36.416Z,9.309061
2022-12-19T03:50:36.446Z,9.309133
2022-12-19T03:51:36.396Z,9.309206
2022-12-19T03:52:36.424Z,9.309124
2022-12-19T03:53:36.375Z,9.309088
2022-12-19T03:54:36.424Z,9.309107
2022-12-19T03:55:36.249Z,9.309125
2022-12-19T03:56:36.301Z,9.309107
2022-12-19T03:57:36.268Z,9.309108
2022-12-19T03:58:36.294Z,9.309113
2022-12-19T03:59:36.318Z,9.309080
2022-12-19T04:00:36.338Z,9.309072
2022-12-19T04:01:36.308Z,9.309096
2022-12-19T04:02:36.754Z,9.309003
2022-12-19T04:03:36.317Z,9.309057
2022-12-19T04:04:36.209Z,9.309082
2022-12-19T04:05:36.232Z,9.309090
2022-12-19T04:06:36.247Z,9.309093
2022-12-19T04:07:36.231Z,9.309049
2022-12-19T04:08:36.277Z,9.309119
2022-12-19T04:09:36.301Z,9.309100
2022-12-19T04:10:36.286Z,9.309115
2022-12-19T04:11:36.257Z,9.309020
2022-12-19T04:12:36.322Z,9.309016
2022-12-19T04:13:36.283Z,9.309069
2022-12-19T04:14:36.232Z,9.309020
2022-12-19T04:15:36.316Z,9.309102
2022-12-19T04:16:36.242Z,9.309150
2022-12-19T04:17:36.196Z,9.309161
2022-12-19T04:18:36.259Z,9.309076
2022-12-19T04:19:39.872Z,9.309081
2022-12-19T04:20:38.124Z,9.309119
2022-12-19T04:21:36.169Z,9.309156
2022-12-19T04:22:36.150Z,9.309113
2022-12-19T04:23:36.181Z,9.309155
2022-12-19T04:24:36.129Z,9.309182
2022-12-19T04:25:36.090Z,9.309061
2022-12-19T04:26:36.169Z,9.309055
2022-12-19T04:27:36.160Z,9.309106
2022-12-19T04:28:36.143Z,9.309153
2022-12-19T04:29:36.160Z,9.309148
2022-12-19T04:30:36.776Z,9.309138
2022-12-19T04:31:36.174Z,9.309148
2022-12-19T04:32:36.139Z,9.309119
2022-12-19T04:33:36.097Z,9.309110
2022-12-19T04:34:40.206Z,9.309174
2022-12-19T04:35:38.120Z,9.309155
2022-12-19T04:36:36.067Z,9.309170
2022-12-19T04:37:36.086Z,9.309160
2022-12-19T04:38:36.069Z,9.309162
2022-12-19T04:39:36.080Z,9.309171
2022-12-19T04:40:40.814Z,9.309115
2022-12-19T04:41:38.015Z,9.309192
2022-12-19T04:42:36.118Z,9.309166
2022-12-19T04:43:36.040Z,9.309102
2022-12-19T04:44:36.036Z,9.309142
2022-12-19T04:45:36.032Z,9.309190
2022-12-19T04:46:36.037Z,9.309155
2022-12-19T04:47:36.010Z,9.309094
2022-12-19T04:48:35.970Z,9.309118
2022-12-19T04:49:35.974Z,9.309127
2022-12-19T04:50:35.958Z,9.309114
2022-12-19T04:51:36.012Z,9.309052
2022-12-19T04:52:36.031Z,9.309126
2022-12-19T04:53:35.959Z,9.309094
2022-12-19T04:54:35.966Z,9.309046
2022-12-19T04:55:35.956Z,9.309133
2022-12-19T04:56:35.987Z,9.309126
2022-12-19T04:57:35.836Z,9.309200
2022-12-19T04:58:35.899Z,9.309175
2022-12-19T04:59:35.872Z,9.309106
2022-12-19T05:00:35.839Z,9.309061
2022-12-19T05:01:35.961Z,9.309125
2022-12-19T05:02:36.053Z,9.309084
2022-12-19T05:03:35.929Z,9.309059
2022-12-19T05:04:35.825Z,9.309006
2022-12-19T05:05:35.812Z,9.309116
2022-12-19T05:06:35.826Z,9.309078
2022-12-19T05:07:36.396Z,9.309165
2022-12-19T05:08:35.891Z,9.309216
2022-12-19T05:09:35.852Z,9.309155
2022-12-19T05:10:35.859Z,9.309206
2022-12-19T05:11:35.827Z,9.308940
2022-12-19T05:12:35.832Z,9.309088
2022-12-19T05:13:35.831Z,9.309005
2022-12-19T05:14:35.880Z,9.309088
2022-12-19T05:15:35.871Z,9.309030
2022-12-19T05:16:35.777Z,9.309048
2022-12-19T05:17:35.779Z,9.309093
2022-12-19T05:18:35.835Z,9.309097
2022-12-19T05:19:35.756Z,9.309161
2022-12-19T05:20:35.793Z,9.309121
2022-12-19T05:21:35.767Z,9.309126
2022-12-19T05:22:35.736Z,9.309095
2022-12-19T05:23:35.781Z,9.309153
2022-12-19T05:24:35.799Z,9.309216
2022-12-19T05:25:35.751Z,9.309072
2022-12-19T05:26:35.692Z,9.309086
2022-12-19T05:27:35.803Z,9.309093
2022-12-19T05:28:35.723Z,9.309184
2022-12-19T05:29:35.831Z,9.309114
2022-12-19T05:30:35.764Z,9.309112
2022-12-19T05:31:35.794Z,9.309050
2022-12-19T05:32:35.724Z,9.309098
2022-12-19T05:33:35.728Z,9.308990
2022-12-19T05:34:35.673Z,9.309040
2022-12-19T05:35:35.696Z,9.308987
2022-12-19T05:36:35.645Z,9.309041
2022-12-19T05:37:35.648Z,9.309031
2022-12-19T05:38:35.672Z,9.309056
2022-12-19T05:39:35.623Z,9.309038
2022-12-19T05:40:35.647Z,9.308805
2022-12-19T05:41:35.606Z,9.308834
2022-12-19T05:42:35.624Z,9.308929
2022-12-19T05:43:35.603Z,9.308979
2022-12-19T05:44:35.579Z,9.309029
2022-12-19T05:45:35.639Z,9.309003
2022-12-19T05:46:35.784Z,9.308926
2022-12-19T05:47:37.900Z,9.308952
2022-12-19T05:48:35.621Z,9.309036
2022-12-19T05:49:35.557Z,9.309010
2022-12-19T05:50:35.466Z,9.309135
2022-12-19T05:51:35.539Z,9.309068
2022-12-19T05:52:35.530Z,9.309245
2022-12-19T05:53:35.573Z,9.309198
2022-12-19T05:54:35.451Z,9.309070
2022-12-19T05:55:35.500Z,9.308932
2022-12-19T05:56:35.436Z,9.308969
2022-12-19T05:57:35.476Z,9.309001
2022-12-19T05:58:35.455Z,9.309020
2022-12-19T05:59:35.410Z,9.308889
2022-12-19T06:00:35.470Z,9.308916
2022-12-19T06:01:35.462Z,9.309052
2022-12-19T06:02:35.805Z,9.309111
2022-12-19T06:03:35.525Z,9.309081
2022-12-19T06:04:35.463Z,9.308927
2022-12-19T06:05:35.448Z,9.308922
2022-12-19T06:06:35.370Z,9.308745
2022-12-19T06:07:35.513Z,9.308934
2022-12-19T06:08:35.456Z,9.309026
2022-12-19T06:09:35.453Z,9.309285
2022-12-19T06:10:35.420Z,9.309004
2022-12-19T06:11:35.440Z,9.309044
2022-12-19T06:12:35.427Z,9.309049
2022-12-19T06:13:36.005Z,9.309036
2022-12-19T06:14:35.410Z,9.309136
2022-12-19T06:15:35.471Z,9.309052
2022-12-19T06:16:35.426Z,9.308969
2022-12-19T06:17:35.433Z,9.309258
2022-12-19T06:18:37.459Z,9.309078
2022-12-19T06:19:36.447Z,9.308988
2022-12-19T06:20:35.360Z,9.308950
2022-12-19T06:21:35.340Z,9.308923
2022-12-19T06:22:35.355Z,9.308967
2022-12-19T06:23:35.363Z,9.308827
2022-12-19T06:24:35.360Z,9.308738
2022-12-19T06:25:35.342Z,9.308843
2022-12-19T06:26:35.299Z,9.308930
2022-12-19T06:27:35.311Z,9.308977
2022-12-19T06:28:35.308Z,9.308943
2022-12-19T06:29:35.322Z,9.308872
2022-12-19T06:30:35.295Z,9.308919
2022-12-19T06:31:35.478Z,9.308880
2022-12-19T06:32:38.090Z,9.309019
2022-12-19T06:33:36.261Z,9.308739
2022-12-19T06:35:04.619Z,9.308862
2022-12-19T06:35:37.332Z,9.308967
2022-12-19T06:36:35.234Z,9.308936
2022-12-19T06:37:38.933Z,9.309031
2022-12-19T06:38:35.273Z,9.309010
2022-12-19T06:39:35.222Z,9.308927
2022-12-19T06:40:35.337Z,9.308802
2022-12-19T06:41:35.215Z,9.308989
2022-12-19T06:42:35.263Z,9.308887
2022-12-19T06:44:06.510Z,9.308875
2022-12-19T06:44:36.141Z,9.308960
2022-12-19T06:45:35.247Z,9.308991
2022-12-19T06:46:35.346Z,9.309112
2022-12-19T06:47:35.174Z,9.309035
2022-12-19T06:48:35.166Z,9.309102
2022-12-19T06:49:35.194Z,9.309041
2022-12-19T06:50:35.253Z,9.309055
2022-12-19T06:51:35.223Z,9.309070
2022-12-19T06:52:35.150Z,9.308920
2022-12-19T06:53:35.147Z,9.309031
2022-12-19T06:54:35.116Z,9.309013
2022-12-19T06:55:35.144Z,9.309061
2022-12-19T06:56:35.124Z,9.309020
2022-12-19T06:57:35.170Z,9.309044
2022-12-19T06:58:35.135Z,9.309022
2022-12-19T06:59:35.076Z,9.309073
2022-12-19T07:00:35.109Z,9.309206
2022-12-19T07:01:35.171Z,9.309185
2022-12-19T07:02:35.138Z,9.309070
2022-12-19T07:03:35.017Z,9.309093
2022-12-19T07:04:34.993Z,9.309188
2022-12-19T07:05:34.970Z,9.309226
2022-12-19T07:06:35.036Z,9.309068
2022-12-19T07:07:35.144Z,9.309019
2022-12-19T07:08:34.985Z,9.309021
2022-12-19T07:09:34.945Z,9.309022
2022-12-19T07:10:35.104Z,9.308977
2022-12-19T07:11:35.024Z,9.309094
2022-12-19T07:12:34.998Z,9.309063
2022-12-19T07:13:35.051Z,9.309134
2022-12-19T07:14:35.008Z,9.309111
2022-12-19T07:15:34.990Z,9.309115
2022-12-19T07:16:35.060Z,9.309139
2022-12-19T07:17:35.027Z,9.309072
2022-12-19T07:18:35.350Z,9.308900
2022-12-19T07:19:34.967Z,9.309087
2022-12-19T07:20:34.959Z,9.309043
2022-12-19T07:21:34.959Z,9.309026
2022-12-19T07:22:35.027Z,9.309010
2022-12-19T07:23:34.932Z,9.309057
2022-12-19T07:24:35.046Z,9.309007
2022-12-19T07:25:34.926Z,9.309043
2022-12-19T07:26:34.924Z,9.309088
2022-12-19T07:27:36.037Z,9.309095
2022-12-19T07:28:35.915Z,9.309005
2022-12-19T07:29:34.933Z,9.309051
2022-12-19T07:34:18.976Z,9.309085
2022-12-19T07:35:17.997Z,9.309053
2022-12-19T07:36:17.947Z,9.308867
2022-12-19T07:37:17.985Z,9.309141
2022-12-19T07:38:17.980Z,9.309090
2022-12-19T07:39:17.924Z,9.309057
2022-12-19T07:40:17.974Z,9.309074
2022-12-19T07:41:17.910Z,9.309077
2022-12-19T07:42:17.910Z,9.308917
2022-12-19T07:43:17.884Z,9.309035
2022-12-19T07:44:17.944Z,9.309208
2022-12-19T07:45:17.933Z,9.309176
2022-12-19T07:46:18.036Z,9.309034
2022-12-19T07:47:17.907Z,9.309102
2022-12-19T07:48:18.756Z,9.309189
2022-12-19T07:49:22.448Z,9.309113
2022-12-19T07:50:18.897Z,9.308931
2022-12-19T07:51:17.982Z,9.309037
2022-12-19T07:52:18.811Z,9.309102
2022-12-19T07:53:17.925Z,9.309008
2022-12-19T07:54:18.004Z,9.309045
2022-12-19T07:55:17.918Z,9.309065
2022-12-19T07:56:17.915Z,9.309184
2022-12-19T07:57:17.940Z,9.309234
2022-12-19T07:58:17.880Z,9.309248
2022-12-19T07:59:17.897Z,9.309216
2022-12-19T08:00:17.880Z,9.309162
2022-12-19T08:01:17.935Z,9.309157
2022-12-19T08:02:17.981Z,9.309087
2022-12-19T08:03:17.876Z,9.309098
2022-12-19T08:04:17.860Z,9.309046
2022-12-19T08:05:17.869Z,9.309071
2022-12-19T08:06:17.847Z,9.309135
2022-12-19T08:07:17.877Z,9.309157
2022-12-19T08:08:17.869Z,9.309110
2022-12-19T08:09:17.828Z,9.309209
2022-12-19T08:10:17.892Z,9.309206
2022-12-19T08:11:17.842Z,9.309324
2022-12-19T08:12:17.834Z,9.309181
2022-12-19T08:13:17.870Z,9.309191
2022-12-19T08:14:17.787Z,9.309198
2022-12-19T08:15:17.828Z,9.309145
2022-12-19T08:16:17.847Z,9.309126
2022-12-19T08:17:20.648Z,9.309151
2022-12-19T08:18:18.805Z,9.309061
2022-12-19T08:19:17.746Z,9.309089
2022-12-19T08:20:17.735Z,9.309059
2022-12-19T08:21:17.750Z,9.309150
2022-12-19T08:22:17.779Z,9.309079
2022-12-19T08:23:17.762Z,9.309103
2022-12-19T08:24:17.979Z,9.309113
2022-12-19T08:25:17.733Z,9.309077
2022-12-19T08:26:17.812Z,9.309039
2022-12-19T08:27:17.720Z,9.309046
2022-12-19T08:28:17.690Z,9.309055
2022-12-19T08:29:17.705Z,9.309057
2022-12-19T08:30:17.607Z,9.309031
2022-12-19T08:31:17.652Z,9.308998
2022-12-19T08:32:21.229Z,9.309096
2022-12-19T08:33:18.592Z,9.309101
2022-12-19T08:34:17.606Z,9.309072
2022-12-19T08:35:17.646Z,9.309085
2022-12-19T08:36:17.559Z,9.309048
2022-12-19T08:37:17.657Z,9.309081
2022-12-19T08:38:17.849Z,9.309143
2022-12-19T08:39:17.649Z,9.309151
2022-12-19T08:40:17.725Z,9.309031
2022-12-19T08:41:17.620Z,9.309097
2022-12-19T08:42:17.742Z,9.309054
2022-12-19T08:43:17.624Z,9.308992
2022-12-19T08:44:17.618Z,9.309057
2022-12-19T08:45:17.615Z,9.309056
2022-12-19T08:46:17.701Z,9.309114
2022-12-19T08:47:17.607Z,9.309056
2022-12-19T08:48:17.580Z,9.309043
2022-12-19T08:49:17.559Z,9.309062
2022-12-19T08:50:17.575Z,9.308996
2022-12-19T08:51:17.635Z,9.309052
2022-12-19T08:52:17.708Z,9.309150
2022-12-19T08:53:22.748Z,9.309063
2022-12-19T08:54:19.468Z,9.309134
2022-12-19T08:55:17.571Z,9.309073
2022-12-19T08:56:17.596Z,9.309024
2022-12-19T08:57:17.605Z,9.309042
2022-12-19T08:58:17.597Z,9.309134
2022-12-19T08:59:24.183Z,9.309059
2022-12-19T09:00:18.490Z,9.309079
2022-12-19T09:01:17.515Z,9.309099
2022-12-19T09:02:17.763Z,9.309096
2022-12-19T09:03:18.810Z,9.309121
2022-12-19T09:05:57.212Z,9.309136
2022-12-19T09:05:57.342Z,9.309183
2022-12-19T09:06:18.851Z,9.309164
2022-12-19T09:07:18.496Z,9.309083
2022-12-19T09:08:17.498Z,9.309134
2022-12-19T09:09:17.504Z,9.309122
2022-12-19T09:10:18.451Z,9.309097
2022-12-19T09:11:17.434Z,9.309175
2022-12-19T09:12:17.405Z,9.309201
2022-12-19T09:13:17.523Z,9.309243
2022-12-19T09:14:21.268Z,9.309180
2022-12-19T09:15:17.440Z,9.309266
2022-12-19T09:16:17.465Z,9.309251
2022-12-19T09:17:17.604Z,9.309147
2022-12-19T09:18:17.393Z,9.309113
2022-12-19T09:19:17.341Z,9.309093
2022-12-19T09:20:22.942Z,9.309020
2022-12-19T09:21:19.310Z,9.309055
2022-12-19T09:22:17.323Z,9.309093
2022-12-19T09:23:17.314Z,9.309086
2022-12-19T09:24:17.372Z,9.309177
2022-12-19T09:25:17.266Z,9.309155
2022-12-19T09:26:17.283Z,9.309128
2022-12-19T09:27:17.355Z,9.309171
2022-12-19T09:28:27.363Z,9.309348
2022-12-19T09:29:21.549Z,9.309166
2022-12-19T09:30:17.316Z,9.309136
2022-12-19T09:31:17.375Z,9.309134
2022-12-19T09:32:17.365Z,9.309095
2022-12-19T09:33:17.303Z,9.309085
2022-12-19T09:34:17.398Z,9.309089
2022-12-19T09:35:17.287Z,9.309112
2022-12-19T09:36:17.329Z,9.309193
2022-12-19T09:37:17.942Z,9.309141
2022-12-19T09:38:18.469Z,9.309134
2022-12-19T09:39:17.273Z,9.309129
2022-12-19T09:40:17.310Z,9.309143
2022-12-19T09:41:18.070Z,9.309109
2022-12-19T09:42:17.271Z,9.309131
2022-12-19T09:43:17.261Z,9.309187
2022-12-19T09:44:17.215Z,9.309183
2022-12-19T09:45:19.041Z,9.309126
2022-12-19T09:46:18.379Z,9.309109
2022-12-19T09:47:17.266Z,9.309105
2022-12-19T09:48:23.691Z,9.309121
2022-12-19T09:49:18.238Z,9.309067
2022-12-19T09:50:17.208Z,9.309072
2022-12-19T09:51:17.218Z,9.309086
2022-12-19T09:52:17.229Z,9.309100
2022-12-19T09:53:17.279Z,9.309089
2022-12-19T09:54:18.170Z,9.309140
2022-12-19T09:55:17.414Z,9.309159
2022-12-19T09:56:17.150Z,9.309135
2022-12-19T09:57:17.328Z,9.309245
2022-12-19T09:58:17.255Z,9.309150
2022-12-19T09:59:17.190Z,9.309094
2022-12-19T10:00:17.195Z,9.309181
2022-12-19T10:01:17.535Z,9.309134
2022-12-19T10:02:17.533Z,9.309150
2022-12-19T10:03:17.371Z,9.309134
2022-12-19T10:04:17.126Z,9.309105
2022-12-19T10:05:28.352Z,9.309214
2022-12-19T10:07:10.958Z,9.309105
2022-12-19T10:07:35.381Z,9.309146
2022-12-19T10:08:18.993Z,9.309148
2022-12-19T10:10:29.285Z,9.309130
2022-12-19T10:12:35.270Z,9.309174
2022-12-19T10:12:38.374Z,9.309144
2022-12-19T10:12:44.271Z,9.309014
2022-12-19T10:13:18.034Z,9.309187
2022-12-19T10:14:17.072Z,9.309129
2022-12-19T10:15:17.048Z,9.309165
2022-12-19T10:16:17.176Z,9.309134
2022-12-19T10:17:25.303Z,9.309135
2022-12-19T10:18:19.223Z,9.309086
2022-12-19T10:19:17.127Z,9.309054
2022-12-19T10:20:17.102Z,9.309067
2022-12-19T10:21:16.985Z,9.309065
2022-12-19T10:22:19.152Z,9.308990
2022-12-19T10:23:18.015Z,9.309047
2022-12-19T10:24:16.992Z,9.309079
2022-12-19T10:25:16.920Z,9.309083
2022-12-19T10:26:16.979Z,9.309108
2022-12-19T10:27:16.867Z,9.309107
2022-12-19T10:28:16.873Z,9.309132
2022-12-19T10:29:17.072Z,9.309127
2022-12-19T10:30:16.862Z,9.309086
2022-12-19T10:31:21.566Z,9.309080
2022-12-19T10:32:18.907Z,9.309032
2022-12-19T10:33:20.157Z,9.309181
2022-12-19T10:34:18.129Z,9.309173
2022-12-19T10:35:16.789Z,9.309243
2022-12-19T10:36:16.857Z,9.309233
2022-12-19T10:37:26.577Z,9.309154
2022-12-19T10:38:17.787Z,9.309043
2022-12-19T10:39:16.908Z,9.309111
2022-12-19T10:40:22.240Z,9.309137
2022-12-19T10:41:17.865Z,9.309201
2022-12-19T10:42:16.861Z,9.309092
2022-12-19T10:43:23.116Z,9.309084
2022-12-19T10:44:18.746Z,9.309089
2022-12-19T10:45:17.095Z,9.309090
2022-12-19T10:46:16.882Z,9.309136
2022-12-19T10:47:16.885Z,9.309124
2022-12-19T10:48:16.808Z,9.309105
2022-12-19T10:49:16.859Z,9.309091
2022-12-19T10:50:16.867Z,9.309082
2022-12-19T10:51:16.841Z,9.309059
2022-12-19T10:52:16.801Z,9.309058
2022-12-19T10:53:16.803Z,9.309110
2022-12-19T10:54:16.749Z,9.309021
2022-12-19T10:55:16.770Z,9.309108
2022-12-19T10:56:16.788Z,9.309112
2022-12-19T10:57:16.773Z,9.309043
2022-12-19T10:58:16.861Z,9.308999
2022-12-19T10:59:16.728Z,9.308931
2022-12-19T11:00:16.803Z,9.308909
2022-12-19T11:01:16.802Z,9.308994
2022-12-19T11:02:16.922Z,9.309091
2022-12-19T11:03:19.021Z,9.309112
2022-12-19T11:04:16.742Z,9.309103
2022-12-19T11:05:16.747Z,9.309167
2022-12-19T11:06:17.207Z,9.309121
2022-12-19T11:07:16.906Z,9.309072
2022-12-19T11:08:16.671Z,9.309096
2022-12-19T11:09:16.644Z,9.309054
2022-12-19T11:11:10.308Z,9.309062
2022-12-19T11:12:45.167Z,9.309106
2022-12-19T11:15:39.577Z,9.309103
2022-12-19T11:17:30.557Z,9.309136
2022-12-19T11:19:16.087Z,9.309111
2022-12-19T11:21:07.789Z,9.309078
2022-12-19T11:21:56.213Z,9.309081
2022-12-19T11:24:17.348Z,9.309033
2022-12-19T11:27:34.406Z,9.308954
2022-12-19T11:29:34.397Z,9.309024
2022-12-19T11:29:40.454Z,9.308989
2022-12-19T11:29:40.715Z,9.309035
2022-12-19T11:29:44.436Z,9.309077
2022-12-19T11:29:44.576Z,9.309080
2022-12-19T11:30:36.760Z,9.309150
2022-12-19T11:30:44.123Z,9.309072
2022-12-19T11:30:45.505Z,9.309095
2022-12-19T11:30:46.259Z,9.309209
2022-12-19T11:30:47.444Z,9.309012
2022-12-19T11:31:50.907Z,9.309092
2022-12-19T11:31:58.413Z,9.309049
2022-12-19T11:32:47.090Z,9.309132
2022-12-19T11:33:18.796Z,9.309075
2022-12-19T11:34:16.878Z,9.309046
2022-12-19T11:35:16.566Z,9.309087
2022-12-19T11:36:16.991Z,9.309116
2022-12-19T11:37:17.054Z,9.309083
2022-12-19T11:38:16.573Z,9.309154
2022-12-19T11:39:17.442Z,9.309137
2022-12-19T11:40:16.432Z,9.309065
2022-12-19T11:41:16.687Z,9.309082
2022-12-19T11:42:16.457Z,9.309050
2022-12-19T11:44:18.573Z,9.309099
2022-12-19T11:45:16.603Z,9.309045
2022-12-19T11:46:21.817Z,9.308996
2022-12-19T11:47:18.485Z,9.309089
2022-12-19T11:48:16.445Z,9.309036
2022-12-19T11:49:16.402Z,9.309010
2022-12-19T11:50:16.493Z,9.309016